Time;durP1;ratioP1;P1;durP2;ratioP2;P2;SDS_P1;SDS_P2;PMS_P1;PMS_P2;Temp;Humidity;BMP_temperature;BMP_pressure;BME280_temperature;BME280_humidity;BME280_pressure;Samples;Min_cycle;Max_cycle;Signal;HPM_P1;HPM_P2
2023/12/29 00:01:30;;;;;;;53.92;44.22;;;8.00;99.90;;;;;;5053031;28;20032;-73
2023/12/29 00:03:56;;;;;;;54.20;43.58;;;8.10;99.90;;;;;;5052129;28;20025;-73
2023/12/29 00:06:21;;;;;;;57.78;44.90;;;8.10;99.90;;;;;;5052426;28;20038;-73
2023/12/29 00:08:47;;;;;;;54.78;43.13;;;8.10;99.90;;;;;;5052276;28;20033;-73
2023/12/29 00:11:22;;;;;;;53.45;43.90;;;8.00;99.90;;;;;;5048644;28;20029;-73
2023/12/29 00:13:48;;;;;;;56.00;44.45;;;8.00;99.90;;;;;;5052287;28;20025;-73
2023/12/29 00:16:15;;;;;;;53.30;44.28;;;8.00;99.90;;;;;;5051833;28;20116;-73
2023/12/29 00:18:40;;;;;;;53.90;44.55;;;8.00;99.90;;;;;;5052463;28;20070;-73
2023/12/29 00:21:07;;;;;;;51.72;41.85;;;8.00;99.90;;;;;;5052288;28;20487;-72
2023/12/29 00:23:33;;;;;;;58.20;44.05;;;8.10;99.90;;;;;;5049392;28;20472;-73
2023/12/29 00:25:58;;;;;;;50.25;43.88;;;8.10;99.90;;;;;;5048898;28;20032;-73
2023/12/29 00:28:24;;;;;;;42.67;34.28;;;8.10;99.90;;;;;;5048576;28;20498;-73
2023/12/29 00:30:50;;;;;;;56.58;41.95;;;8.10;99.90;;;;;;5048258;28;20029;-72
2023/12/29 00:33:15;;;;;;;53.63;43.88;;;8.10;99.90;;;;;;5049706;28;20537;-72
2023/12/29 00:35:41;;;;;;;54.60;44.25;;;8.10;99.90;;;;;;5053778;28;20032;-73
2023/12/29 00:38:07;;;;;;;51.72;42.22;;;8.10;99.90;;;;;;5053705;28;20474;-73
2023/12/29 00:40:33;;;;;;;52.47;41.33;;;8.10;99.90;;;;;;5050570;28;20052;-73
2023/12/29 00:43:00;;;;;;;47.53;41.08;;;8.10;99.90;;;;;;5054679;28;20384;-73
2023/12/29 00:45:29;;;;;;;54.55;42.40;;;8.10;99.90;;;;;;5060576;28;20040;-73
2023/12/29 00:47:55;;;;;;;55.28;43.15;;;8.10;99.90;;;;;;5056040;28;20052;-73
2023/12/29 00:50:20;;;;;;;49.58;40.63;;;8.10;99.90;;;;;;5050226;28;20029;-73
2023/12/29 00:52:46;;;;;;;55.60;42.50;;;8.00;99.90;;;;;;5048616;28;20037;-73
2023/12/29 00:55:12;;;;;;;51.85;42.10;;;8.00;99.90;;;;;;5046935;28;20029;-72
2023/12/29 00:57:37;;;;;;;49.15;41.25;;;8.10;99.90;;;;;;5056719;28;20032;-73
2023/12/29 01:00:04;;;;;;;53.15;42.17;;;8.10;99.90;;;;;;5050928;28;20375;-73
2023/12/29 01:02:29;;;;;;;55.80;43.65;;;8.10;99.90;;;;;;5054360;28;20040;-73
2023/12/29 01:04:55;;;;;;;53.78;44.08;;;8.10;99.90;;;;;;5051059;28;20025;-73
2023/12/29 01:07:20;;;;;;;52.58;41.30;;;8.10;99.90;;;;;;5050273;28;20036;-73
2023/12/29 01:09:46;;;;;;;50.78;40.38;;;8.10;99.90;;;;;;5050594;28;20122;-73
2023/12/29 01:12:12;;;;;;;47.92;40.88;;;8.10;99.90;;;;;;5050535;28;20025;-73
2023/12/29 01:14:37;;;;;;;52.03;44.40;;;8.10;99.90;;;;;;5051515;28;20025;-73
2023/12/29 01:17:03;;;;;;;50.20;41.40;;;8.10;99.90;;;;;;5049114;28;20568;-73
2023/12/29 01:19:29;;;;;;;52.05;41.75;;;8.10;99.90;;;;;;5051508;28;20021;-73
2023/12/29 01:21:55;;;;;;;52.83;42.58;;;8.10;99.90;;;;;;5048677;28;20075;-73
2023/12/29 01:24:20;;;;;;;53.17;43.70;;;8.00;99.90;;;;;;5051313;28;20367;-73
2023/12/29 01:26:46;;;;;;;66.72;44.33;;;8.00;99.90;;;;;;5049873;28;20033;-73
2023/12/29 01:29:11;;;;;;;52.45;43.35;;;8.00;99.90;;;;;;5050062;28;20025;-73
2023/12/29 01:31:37;;;;;;;59.40;45.88;;;8.00;99.90;;;;;;5044110;28;20026;-73
2023/12/29 01:34:03;;;;;;;58.22;44.35;;;8.00;99.90;;;;;;5051112;28;20025;-73
2023/12/29 01:36:28;;;;;;;54.40;42.97;;;7.90;99.90;;;;;;5059372;28;20025;-73
2023/12/29 01:38:54;;;;;;;50.45;41.33;;;7.90;99.90;;;;;;5053878;28;20040;-73
2023/12/29 01:41:20;;;;;;;53.55;42.13;;;7.90;99.90;;;;;;5050541;28;20098;-73
2023/12/29 01:44:12;;;;;;;51.63;42.50;;;8.00;99.90;;;;;;5054648;28;20037;-73
2023/12/29 01:46:38;;;;;;;56.63;41.63;;;8.00;99.90;;;;;;5050573;28;20061;-73
2023/12/29 01:49:04;;;;;;;57.47;43.40;;;8.00;99.90;;;;;;5055031;28;20429;-73
2023/12/29 01:51:30;;;;;;;52.40;41.40;;;8.00;99.90;;;;;;5053400;28;20029;-73
2023/12/29 01:53:58;;;;;;;55.03;42.65;;;7.90;99.90;;;;;;5054906;28;20032;-73
2023/12/29 01:56:23;;;;;;;50.05;41.10;;;7.90;99.90;;;;;;5054150;28;20055;-73
2023/12/29 01:58:51;;;;;;;50.35;41.50;;;7.90;99.90;;;;;;5054286;28;20078;-73
2023/12/29 02:01:18;;;;;;;52.72;42.08;;;7.90;99.90;;;;;;5054189;28;20463;-73
2023/12/29 02:03:47;;;;;;;51.28;41.67;;;7.90;99.90;;;;;;5051912;28;20060;-73
2023/12/29 02:06:15;;;;;;;49.70;41.28;;;7.90;99.90;;;;;;5054518;28;20029;-73
2023/12/29 02:08:43;;;;;;;49.53;41.00;;;8.00;99.90;;;;;;5049256;28;20021;-73
2023/12/29 02:11:10;;;;;;;46.38;40.70;;;8.00;99.90;;;;;;5046202;28;20170;-72
2023/12/29 02:13:35;;;;;;;48.35;40.28;;;8.00;99.90;;;;;;5051124;28;20515;-73
2023/12/29 02:16:18;;;;;;;49.75;41.63;;;8.00;99.90;;;;;;5054646;28;20167;-73
2023/12/29 02:18:46;;;;;;;47.83;39.88;;;8.00;99.90;;;;;;5053341;28;20025;-73
2023/12/29 02:21:13;;;;;;;46.10;40.28;;;8.00;99.90;;;;;;5054483;28;20163;-73
2023/12/29 02:23:38;;;;;;;50.33;41.28;;;8.00;99.90;;;;;;5052813;28;20051;-72
2023/12/29 02:26:12;;;;;;;54.67;40.95;;;7.90;99.90;;;;;;5054573;28;20183;-73
2023/12/29 02:28:45;;;;;;;50.70;40.28;;;7.90;99.90;;;;;;5052798;28;20060;-73
2023/12/29 02:31:19;;;;;;;51.08;39.50;;;7.90;99.90;;;;;;5054181;28;20032;-73
2023/12/29 02:33:47;;;;;;;48.85;39.10;;;7.90;99.90;;;;;;5053451;28;20086;-73
2023/12/29 02:36:15;;;;;;;50.90;40.67;;;7.90;99.90;;;;;;5054020;28;20025;-73
2023/12/29 02:38:41;;;;;;;51.55;42.17;;;8.00;99.90;;;;;;5053644;28;20055;-73
2023/12/29 02:41:06;;;;;;;46.72;38.63;;;8.00;99.90;;;;;;5050493;28;20434;-73
2023/12/29 02:43:32;;;;;;;45.03;38.65;;;8.00;99.90;;;;;;5051111;28;20104;-73
2023/12/29 02:45:58;;;;;;;45.33;38.78;;;8.00;99.90;;;;;;5053922;28;20059;-73
2023/12/29 02:48:24;;;;;;;50.28;39.25;;;8.00;99.90;;;;;;5051657;28;20029;-73
2023/12/29 02:50:49;;;;;;;48.42;40.13;;;8.00;99.90;;;;;;5054233;28;20025;-73
2023/12/29 02:53:15;;;;;;;52.25;41.72;;;8.00;99.90;;;;;;5052271;28;20033;-74
2023/12/29 02:55:41;;;;;;;48.88;40.35;;;8.00;99.90;;;;;;5053850;28;20475;-73
2023/12/29 02:58:08;;;;;;;52.78;40.90;;;7.90;99.90;;;;;;5051356;28;20032;-73
2023/12/29 03:00:34;;;;;;;49.08;39.25;;;7.90;99.90;;;;;;5054225;28;20047;-73
2023/12/29 03:02:59;;;;;;;47.72;39.38;;;7.80;99.90;;;;;;5050880;28;20060;-73
2023/12/29 03:05:25;;;;;;;49.53;40.05;;;7.80;99.90;;;;;;5043445;28;20037;-73
2023/12/29 03:07:51;;;;;;;45.08;39.53;;;7.90;99.90;;;;;;5053422;28;20029;-73
2023/12/29 03:10:17;;;;;;;46.47;39.42;;;7.90;99.90;;;;;;5048436;28;20033;-73
2023/12/29 03:12:42;;;;;;;50.75;39.58;;;7.90;99.90;;;;;;5039949;28;20416;-73
2023/12/29 03:15:08;;;;;;;54.72;39.38;;;7.80;99.90;;;;;;5053657;28;20116;-72
2023/12/29 03:17:34;;;;;;;51.08;40.80;;;7.80;99.90;;;;;;5051750;28;20544;-73
2023/12/29 03:20:01;;;;;;;48.75;41.97;;;7.80;99.90;;;;;;5053548;28;20418;-73
2023/12/29 03:22:26;;;;;;;49.72;39.70;;;7.80;99.90;;;;;;5056718;28;20033;-73
2023/12/29 03:24:52;;;;;;;49.00;39.58;;;7.80;99.90;;;;;;5053298;28;20029;-73
2023/12/29 03:27:18;;;;;;;48.20;39.22;;;7.80;99.90;;;;;;5052180;28;20100;-72
2023/12/29 03:29:43;;;;;;;52.97;39.40;;;7.80;99.90;;;;;;5053610;28;20116;-73
2023/12/29 03:32:09;;;;;;;46.65;40.10;;;7.80;99.90;;;;;;5051602;28;20538;-73
2023/12/29 03:34:34;;;;;;;50.38;41.70;;;7.80;99.90;;;;;;5052790;28;20516;-73
2023/12/29 03:37:00;;;;;;;48.75;41.00;;;7.70;99.90;;;;;;5047637;28;20017;-73
2023/12/29 03:39:26;;;;;;;49.03;41.10;;;7.70;99.90;;;;;;5051286;28;20247;-73
2023/12/29 03:41:51;;;;;;;45.92;38.92;;;7.70;99.90;;;;;;5050324;28;20021;-73
2023/12/29 03:44:17;;;;;;;52.28;40.58;;;7.60;99.90;;;;;;5044211;28;20029;-73
2023/12/29 03:46:44;;;;;;;46.88;39.30;;;7.60;99.90;;;;;;5051877;28;20048;-73
2023/12/29 03:49:09;;;;;;;50.25;39.42;;;7.60;99.90;;;;;;5051636;28;20108;-73
2023/12/29 03:51:35;;;;;;;48.30;39.13;;;7.60;99.90;;;;;;5050916;28;20112;-73
2023/12/29 03:54:01;;;;;;;46.83;39.22;;;7.60;99.90;;;;;;5051936;28;20183;-73
2023/12/29 03:56:26;;;;;;;49.70;40.47;;;7.70;99.90;;;;;;5052045;28;20051;-72
2023/12/29 03:58:52;;;;;;;53.03;40.13;;;7.70;99.90;;;;;;5050294;28;20032;-73
2023/12/29 04:01:19;;;;;;;49.45;40.05;;;7.70;99.90;;;;;;5052223;28;20052;-73
2023/12/29 04:03:45;;;;;;;47.65;39.05;;;7.70;99.90;;;;;;5052078;28;20049;-73
2023/12/29 04:06:11;;;;;;;47.88;40.13;;;7.70;99.90;;;;;;5052638;28;20437;-73
2023/12/29 04:08:38;;;;;;;48.90;39.92;;;7.70;99.90;;;;;;5052798;28;20137;-73
2023/12/29 04:11:04;;;;;;;49.13;39.47;;;7.80;99.90;;;;;;5052555;28;20018;-73
2023/12/29 04:13:31;;;;;;;44.92;38.15;;;7.70;99.90;;;;;;5049945;28;20029;-73
2023/12/29 04:15:56;;;;;;;47.97;40.75;;;7.70;99.90;;;;;;5051227;28;20053;-73
2023/12/29 04:18:24;;;;;;;50.45;38.17;;;7.70;99.90;;;;;;5051312;28;20056;-73
2023/12/29 04:20:50;;;;;;;45.63;38.33;;;7.60;99.90;;;;;;5052628;28;20025;-73
2023/12/29 04:23:16;;;;;;;46.13;38.25;;;7.60;99.90;;;;;;5050103;28;20064;-73
2023/12/29 04:25:42;;;;;;;47.63;39.72;;;7.60;99.90;;;;;;5048666;28;20053;-73
2023/12/29 04:28:08;;;;;;;47.35;38.60;;;7.60;99.90;;;;;;5048222;28;20040;-73
2023/12/29 04:30:34;;;;;;;55.33;39.35;;;7.70;99.90;;;;;;5052121;28;20033;-73
2023/12/29 04:33:00;;;;;;;49.95;40.28;;;7.60;99.90;;;;;;5049956;28;20035;-73
2023/12/29 04:35:26;;;;;;;50.78;39.88;;;7.50;99.90;;;;;;5046504;28;20033;-73
2023/12/29 04:37:52;;;;;;;42.95;37.42;;;7.50;99.90;;;;;;5050330;28;20040;-73
2023/12/29 04:40:18;;;;;;;54.50;39.67;;;7.50;99.90;;;;;;5050119;28;20395;-73
2023/12/29 04:42:43;;;;;;;49.28;39.83;;;7.60;99.90;;;;;;5050699;28;20043;-73
2023/12/29 04:45:10;;;;;;;44.80;37.83;;;7.60;99.90;;;;;;5051895;28;20112;-73
2023/12/29 04:47:36;;;;;;;49.08;38.63;;;7.60;99.90;;;;;;5048970;28;20503;-73
2023/12/29 04:50:02;;;;;;;48.65;39.42;;;7.60;99.90;;;;;;5051873;28;20132;-73
2023/12/29 04:52:28;;;;;;;44.40;38.00;;;7.70;99.90;;;;;;5049106;28;20666;-73
2023/12/29 04:54:53;;;;;;;50.30;39.50;;;7.60;99.90;;;;;;5050234;28;20502;-73
2023/12/29 04:57:19;;;;;;;46.80;39.75;;;7.60;99.90;;;;;;5050371;28;20626;-73
2023/12/29 04:59:45;;;;;;;53.53;40.88;;;7.60;99.90;;;;;;5051873;28;20056;-73
2023/12/29 05:02:10;;;;;;;49.50;38.92;;;7.60;99.90;;;;;;5049670;28;20025;-73
2023/12/29 05:04:37;;;;;;;50.63;40.60;;;7.70;99.90;;;;;;5051679;28;20063;-73
2023/12/29 05:07:05;;;;;;;49.38;38.97;;;7.70;99.90;;;;;;5049479;28;20635;-73
2023/12/29 05:09:31;;;;;;;49.75;38.67;;;7.70;99.90;;;;;;5049351;28;20060;-73
2023/12/29 05:11:56;;;;;;;45.83;38.40;;;7.70;99.90;;;;;;5049751;28;20025;-73
2023/12/29 05:14:22;;;;;;;51.17;37.60;;;7.70;99.90;;;;;;5051524;28;20041;-73
2023/12/29 05:16:47;;;;;;;50.55;38.22;;;7.70;99.90;;;;;;5049930;28;20021;-73
2023/12/29 05:19:13;;;;;;;46.58;36.60;;;7.70;99.90;;;;;;5051530;28;20035;-73
2023/12/29 05:21:39;;;;;;;51.40;38.55;;;7.70;99.90;;;;;;5049958;28;20056;-73
2023/12/29 05:24:05;;;;;;;44.45;37.85;;;7.70;99.90;;;;;;5051370;28;20021;-73
2023/12/29 05:26:31;;;;;;;46.03;35.55;;;7.80;99.90;;;;;;5048757;28;20373;-73
2023/12/29 05:28:57;;;;;;;48.45;37.55;;;7.80;99.90;;;;;;5050340;28;20040;-73
2023/12/29 05:31:23;;;;;;;46.42;37.03;;;7.70;99.90;;;;;;5049189;28;20060;-73
2023/12/29 05:33:48;;;;;;;46.85;39.30;;;7.80;99.90;;;;;;5050245;28;20036;-72
2023/12/29 05:36:14;;;;;;;44.13;37.53;;;7.80;99.90;;;;;;5050612;28;20463;-73
2023/12/29 05:38:41;;;;;;;43.30;37.00;;;7.80;99.90;;;;;;5065152;28;20472;-73
2023/12/29 05:41:07;;;;;;;43.78;35.58;;;7.70;99.90;;;;;;5047638;28;20032;-73
2023/12/29 05:43:34;;;;;;;50.42;39.42;;;7.70;99.90;;;;;;5048349;28;20029;-72
2023/12/29 05:46:00;;;;;;;44.65;37.60;;;7.70;99.90;;;;;;5051359;28;20033;-73
2023/12/29 05:48:27;;;;;;;49.85;40.03;;;7.70;99.90;;;;;;5048576;28;20036;-73
2023/12/29 05:50:52;;;;;;;50.33;40.42;;;7.70;99.90;;;;;;5051310;28;20021;-73
2023/12/29 05:53:18;;;;;;;47.70;38.85;;;7.60;99.90;;;;;;5048625;28;20525;-73
2023/12/29 05:55:46;;;;;;;50.03;41.67;;;7.60;99.90;;;;;;5050982;28;20086;-73
2023/12/29 05:58:12;;;;;;;51.40;40.88;;;7.70;99.90;;;;;;5049344;28;20048;-73
2023/12/29 06:00:41;;;;;;;48.13;38.83;;;7.70;99.90;;;;;;5051350;28;20056;-73
2023/12/29 06:03:07;;;;;;;53.63;41.67;;;7.70;99.90;;;;;;5045833;28;20037;-73
2023/12/29 06:05:33;;;;;;;46.33;39.40;;;7.70;99.90;;;;;;5042119;28;20402;-73
2023/12/29 06:07:58;;;;;;;46.17;39.28;;;7.70;99.90;;;;;;5048400;28;20055;-72
2023/12/29 06:10:24;;;;;;;45.42;38.80;;;7.70;99.90;;;;;;5047237;28;20029;-73
2023/12/29 06:12:50;;;;;;;50.25;40.22;;;7.70;99.90;;;;;;5049126;28;20033;-73
2023/12/29 06:15:16;;;;;;;48.85;40.25;;;7.70;99.90;;;;;;5051124;28;20083;-73
2023/12/29 06:17:42;;;;;;;54.95;39.95;;;7.80;99.90;;;;;;5049218;28;20395;-73
2023/12/29 06:20:09;;;;;;;52.03;40.58;;;7.80;99.90;;;;;;5049795;28;20025;-73
2023/12/29 06:22:42;;;;;;;52.33;40.60;;;7.80;99.90;;;;;;5050723;28;20119;-73
2023/12/29 06:25:12;;;;;;;44.53;39.70;;;7.80;99.90;;;;;;5054926;28;20028;-73
2023/12/29 06:27:38;;;;;;;53.35;40.10;;;7.80;99.90;;;;;;5052973;28;20057;-73
2023/12/29 06:30:08;;;;;;;49.97;38.42;;;7.80;99.90;;;;;;5054526;28;20036;-73
2023/12/29 06:32:34;;;;;;;49.95;41.90;;;7.80;99.90;;;;;;5052941;28;20033;-73
2023/12/29 06:35:00;;;;;;;51.80;41.40;;;7.80;99.90;;;;;;5054493;28;20051;-73
2023/12/29 06:37:26;;;;;;;54.10;42.78;;;7.90;99.90;;;;;;5058582;28;20492;-73
2023/12/29 06:39:51;;;;;;;48.42;41.65;;;7.90;99.90;;;;;;5052187;28;20024;-73
2023/12/29 06:42:17;;;;;;;54.35;41.53;;;7.80;99.90;;;;;;5064458;28;20167;-74
2023/12/29 06:44:43;;;;;;;49.78;41.75;;;7.80;99.90;;;;;;5054320;28;20040;-73
2023/12/29 06:47:09;;;;;;;50.05;39.33;;;7.80;99.90;;;;;;5051254;28;20135;-73
2023/12/29 06:49:35;;;;;;;48.42;39.63;;;7.80;99.90;;;;;;5054073;28;20029;-73
2023/12/29 06:52:01;;;;;;;51.75;39.55;;;7.90;99.90;;;;;;5052686;28;20493;-73
2023/12/29 06:54:27;;;;;;;49.53;40.63;;;7.90;99.90;;;;;;5052622;28;20021;-74
2023/12/29 06:56:53;;;;;;;49.55;40.20;;;7.80;99.90;;;;;;5051542;28;20641;-74
2023/12/29 06:59:19;;;;;;;47.15;39.83;;;7.90;99.90;;;;;;5054526;28;20024;-73
2023/12/29 07:01:45;;;;;;;53.92;43.22;;;7.90;99.90;;;;;;5052696;28;20033;-73
2023/12/29 07:04:12;;;;;;;54.22;42.28;;;7.90;99.90;;;;;;5053355;28;20059;-73
2023/12/29 07:06:38;;;;;;;49.85;41.38;;;7.90;99.90;;;;;;5047692;28;20048;-73
2023/12/29 07:09:04;;;;;;;56.45;43.58;;;8.00;99.90;;;;;;5054447;28;20112;-73
2023/12/29 07:11:30;;;;;;;60.17;45.50;;;8.00;99.90;;;;;;5047440;28;21824;-73
2023/12/29 07:13:55;;;;;;;58.30;45.08;;;8.00;99.90;;;;;;5053089;28;20029;-73
2023/12/29 07:16:21;;;;;;;59.05;45.53;;;8.00;99.90;;;;;;5050789;28;20021;-73
2023/12/29 07:18:47;;;;;;;54.47;44.42;;;8.00;99.90;;;;;;5052924;28;20067;-73
2023/12/29 07:21:14;;;;;;;58.85;46.85;;;8.00;99.90;;;;;;5053400;28;20017;-74
2023/12/29 07:23:41;;;;;;;57.78;46.08;;;8.00;99.90;;;;;;5053151;28;20024;-74
2023/12/29 07:26:07;;;;;;;55.45;44.47;;;8.10;99.90;;;;;;5053611;28;20021;-73
2023/12/29 07:28:33;;;;;;;60.03;46.30;;;8.10;99.90;;;;;;5057285;28;20116;-73
2023/12/29 07:30:59;;;;;;;59.20;45.58;;;8.10;99.90;;;;;;5053730;28;20045;-73
2023/12/29 07:33:25;;;;;;;57.08;44.70;;;8.10;99.90;;;;;;5041752;28;20406;-73
2023/12/29 07:35:50;;;;;;;56.92;45.03;;;8.10;99.90;;;;;;5053531;28;20112;-73
2023/12/29 07:38:16;;;;;;;72.50;50.78;;;8.00;99.90;;;;;;5053134;28;20032;-74
2023/12/29 07:40:42;;;;;;;78.72;53.75;;;8.10;99.90;;;;;;5049675;28;20049;-73
2023/12/29 07:43:08;;;;;;;82.38;57.05;;;8.10;99.90;;;;;;5047952;28;20032;-73
2023/12/29 07:45:34;;;;;;;76.30;53.90;;;8.10;99.90;;;;;;5053466;28;20079;-74
2023/12/29 07:48:00;;;;;;;72.55;52.67;;;8.10;99.90;;;;;;5050846;28;20098;-73
2023/12/29 07:50:25;;;;;;;75.63;52.70;;;8.10;99.90;;;;;;5053341;28;20111;-73
2023/12/29 07:52:52;;;;;;;72.57;55.20;;;8.10;99.90;;;;;;5051576;28;20071;-73
2023/12/29 07:55:18;;;;;;;77.53;56.08;;;8.10;99.90;;;;;;5053072;28;20467;-73
2023/12/29 07:57:44;;;;;;;76.40;56.88;;;8.10;99.90;;;;;;5050707;28;20538;-73
2023/12/29 08:00:10;;;;;;;82.00;55.42;;;8.20;99.90;;;;;;5055464;28;20368;-73
2023/12/29 08:02:35;;;;;;;76.43;55.78;;;8.20;99.90;;;;;;5051070;28;20036;-73
2023/12/29 08:05:02;;;;;;;75.28;55.70;;;8.20;99.90;;;;;;5051496;28;20036;-73
2023/12/29 08:07:28;;;;;;;72.45;55.35;;;8.20;99.90;;;;;;5050337;28;20029;-73
2023/12/29 08:09:53;;;;;;;73.53;57.53;;;8.20;99.90;;;;;;5049923;28;20037;-73
2023/12/29 08:12:19;;;;;;;91.93;65.60;;;8.20;99.90;;;;;;5051279;28;20447;-73
2023/12/29 08:14:44;;;;;;;98.80;71.03;;;8.20;99.90;;;;;;5054751;28;20570;-73
2023/12/29 08:17:11;;;;;;;109.00;72.82;;;8.20;99.90;;;;;;5052931;28;20037;-73
2023/12/29 08:19:36;;;;;;;111.97;76.85;;;8.20;99.90;;;;;;5055694;28;20483;-73
2023/12/29 08:22:03;;;;;;;116.03;79.85;;;8.30;99.90;;;;;;5049518;28;20044;-73
2023/12/29 08:24:29;;;;;;;104.57;76.63;;;8.20;99.90;;;;;;5056218;28;20058;-73
2023/12/29 08:26:54;;;;;;;98.97;70.97;;;8.30;99.90;;;;;;5051421;28;20499;-73
2023/12/29 08:29:20;;;;;;;98.40;71.10;;;8.30;99.90;;;;;;5053679;28;20487;-74
2023/12/29 08:31:46;;;;;;;96.00;68.68;;;8.30;99.90;;;;;;5049931;28;20178;-73
2023/12/29 08:34:12;;;;;;;92.88;69.82;;;8.40;99.90;;;;;;5053320;28;20090;-73
2023/12/29 08:36:38;;;;;;;85.53;61.65;;;8.40;99.90;;;;;;5045679;28;20029;-73
2023/12/29 08:39:03;;;;;;;83.65;63.30;;;8.40;99.90;;;;;;5053379;28;20043;-73
2023/12/29 08:41:29;;;;;;;83.55;61.17;;;8.40;99.90;;;;;;5049691;28;20113;-73
2023/12/29 08:43:55;;;;;;;84.13;60.97;;;8.40;99.90;;;;;;5049590;28;20103;-73
2023/12/29 08:46:21;;;;;;;76.03;60.50;;;8.40;99.90;;;;;;5057526;28;20037;-73
2023/12/29 08:48:46;;;;;;;79.50;59.40;;;8.40;99.90;;;;;;5054404;28;20158;-74
2023/12/29 08:51:12;;;;;;;90.45;63.83;;;8.50;99.90;;;;;;5060376;28;20026;-74
2023/12/29 08:53:38;;;;;;;88.72;66.75;;;8.40;99.90;;;;;;5048738;28;20028;-73
2023/12/29 08:56:04;;;;;;;85.93;64.55;;;8.40;99.90;;;;;;5051212;28;20518;-73
2023/12/29 08:58:30;;;;;;;101.38;72.43;;;8.40;99.90;;;;;;5048957;28;20025;-73
2023/12/29 09:00:56;;;;;;;102.68;68.95;;;8.40;99.90;;;;;;5054551;28;20033;-73
2023/12/29 09:03:22;;;;;;;89.07;65.40;;;8.40;99.90;;;;;;5044943;28;20071;-73
2023/12/29 09:05:47;;;;;;;90.63;66.28;;;8.40;99.90;;;;;;5052115;28;20371;-73
2023/12/29 09:08:13;;;;;;;92.20;65.05;;;8.40;99.90;;;;;;5050432;28;20437;-73
2023/12/29 09:10:39;;;;;;;87.20;64.47;;;8.40;99.90;;;;;;5046987;28;20025;-73
2023/12/29 09:13:05;;;;;;;79.30;62.00;;;8.40;99.90;;;;;;5052876;28;20498;-74
2023/12/29 09:15:30;;;;;;;84.05;61.15;;;8.40;99.90;;;;;;5056192;28;20036;-73
2023/12/29 09:17:56;;;;;;;76.32;60.63;;;8.40;99.90;;;;;;5045331;28;20047;-73
2023/12/29 09:20:23;;;;;;;80.38;60.28;;;8.40;99.90;;;;;;5048799;28;20036;-73
2023/12/29 09:22:48;;;;;;;77.60;56.60;;;8.40;99.90;;;;;;5045130;28;20718;-73
2023/12/29 09:25:14;;;;;;;79.85;54.47;;;8.40;99.90;;;;;;5048821;28;20091;-73
2023/12/29 09:27:40;;;;;;;73.03;55.80;;;8.40;99.90;;;;;;5046524;28;20539;-73
2023/12/29 09:30:07;;;;;;;71.07;55.00;;;8.50;99.90;;;;;;5047410;28;20116;-73
2023/12/29 09:32:33;;;;;;;73.22;55.55;;;8.50;99.90;;;;;;5049106;28;20124;-73
2023/12/29 09:34:58;;;;;;;84.68;56.85;;;8.50;99.90;;;;;;5046758;28;20108;-73
2023/12/29 09:37:24;;;;;;;70.65;55.95;;;8.60;99.90;;;;;;5042790;28;21341;-72
2023/12/29 09:39:49;;;;;;;74.75;56.58;;;8.60;99.90;;;;;;5045989;28;20052;-73
2023/12/29 09:42:24;;;;;;;75.93;57.55;;;8.60;99.90;;;;;;5050986;28;20095;-72
2023/12/29 09:44:51;;;;;;;75.90;56.38;;;8.60;99.90;;;;;;5052118;28;20106;-73
2023/12/29 09:47:26;;;;;;;79.70;59.30;;;8.60;99.90;;;;;;5052613;28;20048;-73
2023/12/29 09:49:53;;;;;;;72.10;57.88;;;8.60;99.90;;;;;;5050390;28;20362;-72
2023/12/29 09:52:21;;;;;;;74.18;60.75;;;8.60;99.90;;;;;;5049832;28;20024;-73
2023/12/29 09:54:49;;;;;;;80.63;61.33;;;8.70;99.90;;;;;;5051207;28;20020;-73
2023/12/29 09:57:16;;;;;;;82.80;60.88;;;8.70;99.90;;;;;;5053149;28;20013;-73
2023/12/29 09:59:42;;;;;;;83.57;63.00;;;8.70;99.90;;;;;;5057805;28;20521;-73
2023/12/29 10:02:15;;;;;;;79.20;58.53;;;8.70;99.90;;;;;;5053594;28;20476;-74
2023/12/29 10:04:41;;;;;;;73.70;57.35;;;8.70;99.90;;;;;;5067825;28;20407;-73
2023/12/29 10:07:10;;;;;;;77.13;59.28;;;8.70;99.90;;;;;;5058658;28;20039;-73
2023/12/29 10:09:38;;;;;;;74.00;57.72;;;8.80;99.90;;;;;;5052652;28;20033;-73
2023/12/29 10:12:09;;;;;;;78.22;59.67;;;8.80;99.90;;;;;;5052458;28;20480;-73
2023/12/29 10:14:46;;;;;;;79.32;62.38;;;8.80;99.90;;;;;;5060915;28;20024;-73
2023/12/29 10:17:26;;;;;;;80.03;60.70;;;8.80;99.90;;;;;;5053991;28;20027;-73
2023/12/29 10:20:40;;;;;;;78.68;60.03;;;8.80;99.90;;;;;;5056032;28;20028;-73
2023/12/29 10:23:16;;;;;;;72.88;55.97;;;8.90;99.90;;;;;;5054177;28;20032;-73
2023/12/29 10:25:42;;;;;;;69.97;55.45;;;8.90;99.90;;;;;;5054698;28;20112;-74
2023/12/29 10:28:09;;;;;;;79.47;60.45;;;8.90;99.90;;;;;;5055145;28;20104;-73
2023/12/29 10:30:37;;;;;;;80.50;60.25;;;8.90;99.90;;;;;;5053985;28;20025;-73
2023/12/29 10:33:04;;;;;;;77.18;59.67;;;8.90;99.90;;;;;;5057785;28;20021;-73
2023/12/29 10:35:30;;;;;;;74.32;58.25;;;8.90;99.90;;;;;;5057542;28;20029;-73
2023/12/29 10:38:12;;;;;;;80.88;62.10;;;8.90;99.90;;;;;;5054221;28;20078;-73
2023/12/29 10:40:39;;;;;;;;;;;8.90;99.90;;;;;;5047337;28;20026;-73
2023/12/29 10:43:07;;;;;;;77.15;59.20;;;9.00;99.90;;;;;;5058752;28;19916;-73
2023/12/29 10:45:33;;;;;;;74.88;57.70;;;9.00;99.90;;;;;;5056936;28;20021;-74
2023/12/29 10:48:00;;;;;;;80.85;57.53;;;9.00;99.90;;;;;;5057286;28;20044;-73
2023/12/29 10:50:27;;;;;;;76.95;57.42;;;9.00;99.90;;;;;;5056551;28;20033;-73
2023/12/29 10:53:16;;;;;;;76.90;57.17;;;9.10;99.90;;;;;;5057132;28;20063;-73
2023/12/29 10:55:42;;;;;;;73.28;56.63;;;9.10;99.90;;;;;;5058579;28;20074;-73
2023/12/29 10:58:08;;;;;;;74.95;58.00;;;9.10;99.90;;;;;;5052078;28;20104;-73
2023/12/29 11:00:34;;;;;;;74.35;59.05;;;9.10;99.90;;;;;;5054009;28;20025;-73
2023/12/29 11:03:00;;;;;;;77.28;57.97;;;9.10;99.90;;;;;;5055145;28;20071;-73
2023/12/29 11:05:27;;;;;;;78.13;59.90;;;9.20;99.90;;;;;;5055820;28;20096;-73
2023/12/29 11:07:54;;;;;;;76.65;58.58;;;9.20;99.90;;;;;;5054490;28;20036;-73
2023/12/29 11:10:21;;;;;;;75.38;59.38;;;9.20;99.90;;;;;;5055779;28;20029;-73
2023/12/29 11:12:48;;;;;;;70.82;58.33;;;9.20;99.90;;;;;;5052022;28;20028;-73
2023/12/29 11:15:14;;;;;;;77.75;59.75;;;9.20;99.90;;;;;;5051751;28;20025;-73
2023/12/29 11:17:51;;;;;;;77.07;59.63;;;9.30;99.90;;;;;;5052397;28;20463;-73
2023/12/29 11:20:17;;;;;;;85.80;60.88;;;9.30;99.90;;;;;;5057842;28;20016;-73
2023/12/29 11:22:46;;;;;;;77.63;59.60;;;9.30;99.90;;;;;;5054927;28;20705;-73
2023/12/29 11:25:12;;;;;;;77.68;60.22;;;9.30;99.90;;;;;;5055162;28;20055;-73
2023/12/29 11:27:38;;;;;;;79.47;60.83;;;9.30;99.90;;;;;;5057962;28;20482;-73
2023/12/29 11:30:04;;;;;;;79.65;59.00;;;9.30;99.90;;;;;;5053502;28;20040;-73
2023/12/29 11:32:35;;;;;;;78.88;58.72;;;9.30;99.90;;;;;;5053548;28;20033;-73
2023/12/29 11:35:33;;;;;;;75.47;61.03;;;9.30;99.90;;;;;;5054723;28;20029;-73
2023/12/29 11:38:24;;;;;;;79.72;58.15;;;9.30;99.90;;;;;;5046111;28;20025;-73
2023/12/29 11:40:53;;;;;;;75.63;58.75;;;9.40;99.90;;;;;;5053121;28;20051;-73
2023/12/29 11:43:20;;;;;;;77.15;58.33;;;9.40;99.90;;;;;;5047633;28;20066;-73
2023/12/29 11:45:45;;;;;;;76.53;57.58;;;9.40;99.90;;;;;;5052399;28;20024;-73
2023/12/29 11:48:11;;;;;;;94.72;67.93;;;9.40;99.90;;;;;;5044001;28;20487;-72
2023/12/29 11:50:40;;;;;;;121.70;84.85;;;9.30;99.90;;;;;;5053529;28;20527;-73
2023/12/29 11:53:08;;;;;;;144.27;98.32;;;9.30;99.90;;;;;;5050744;28;20716;-73
2023/12/29 11:55:39;;;;;;;176.02;114.38;;;9.30;99.90;;;;;;5051995;28;20048;-72
2023/12/29 11:58:28;;;;;;;124.45;90.55;;;9.30;99.90;;;;;;5053504;28;20021;-72
2023/12/29 12:00:54;;;;;;;113.07;83.07;;;9.40;99.90;;;;;;5061129;28;20052;-73
2023/12/29 12:03:27;;;;;;;86.30;66.25;;;9.40;99.90;;;;;;5053007;28;20509;-73
2023/12/29 12:05:55;;;;;;;82.78;59.47;;;9.40;99.90;;;;;;5055832;28;20083;-73
2023/12/29 12:08:30;;;;;;;76.75;57.15;;;9.40;99.90;;;;;;5057659;28;20483;-74
2023/12/29 12:10:57;;;;;;;79.30;56.60;;;9.40;99.90;;;;;;5053020;28;20028;-73
2023/12/29 12:13:45;;;;;;;79.40;56.08;;;9.40;99.90;;;;;;5055462;28;20028;-73
2023/12/29 12:16:44;;;;;;;76.07;56.53;;;9.40;99.90;;;;;;5049439;28;20028;-73
2023/12/29 12:19:10;;;;;;;73.47;55.63;;;9.40;99.90;;;;;;5047257;28;20045;-73
2023/12/29 12:21:37;;;;;;;78.72;56.80;;;9.40;99.90;;;;;;5054904;28;20028;-73
2023/12/29 12:24:04;;;;;;;86.15;59.08;;;9.40;99.90;;;;;;5054225;28;20082;-73
2023/12/29 12:26:37;;;;;;;79.93;56.58;;;9.40;99.90;;;;;;5057135;28;20025;-73
2023/12/29 12:29:04;;;;;;;79.22;59.30;;;9.40;99.90;;;;;;5054787;28;20025;-73
2023/12/29 12:31:30;;;;;;;77.70;56.42;;;9.40;99.90;;;;;;5055584;28;20033;-73
2023/12/29 12:33:57;;;;;;;73.07;56.95;;;9.30;99.90;;;;;;5049288;28;20036;-73
2023/12/29 12:36:23;;;;;;;74.43;59.08;;;9.30;99.90;;;;;;5051223;28;20032;-73